sensor_id;sensor_type;location;lat;lon;timestamp;temperature;humidity
75130;HTU21D;63703;44.716;37.846;2022-11-25T05:52:04;13.75;73.64
75130;HTU21D;63703;44.716;37.846;2022-11-25T05:54:35;13.78;73.60
75130;HTU21D;63703;44.716;37.846;2022-11-25T05:57:01;13.83;73.60
75130;HTU21D;63703;44.716;37.846;2022-11-25T05:59:38;13.89;73.57
75130;HTU21D;63703;44.716;37.846;2022-11-25T06:02:08;13.94;73.54
75130;HTU21D;63703;44.716;37.846;2022-11-25T06:04:34;14.00;73.54
75130;HTU21D;63703;44.716;37.846;2022-11-25T06:07:01;14.07;73.54
75130;HTU21D;63703;44.716;37.846;2022-11-25T06:09:28;14.13;73.52
75130;HTU21D;63703;44.716;37.846;2022-11-25T06:11:54;14.20;73.51
75130;HTU21D;63703;44.716;37.846;2022-11-25T06:14:21;14.27;73.45
75130;HTU21D;63703;44.716;37.846;2022-11-25T06:16:49;14.33;73.35
75130;HTU21D;63703;44.716;37.846;2022-11-25T06:19:26;14.41;73.16
75130;HTU21D;63703;44.716;37.846;2022-11-25T06:21:52;14.49;72.88
75130;HTU21D;63703;44.716;37.846;2022-11-25T06:24:18;14.58;72.77
75130;HTU21D;63703;44.716;37.846;2022-11-25T06:26:47;14.64;72.93
75130;HTU21D;63703;44.716;37.846;2022-11-25T06:29:13;14.66;72.88
75130;HTU21D;63703;44.716;37.846;2022-11-25T06:31:43;14.70;72.82
75130;HTU21D;63703;44.716;37.846;2022-11-25T06:34:30;14.71;73.09
75130;HTU21D;63703;44.716;37.846;2022-11-25T06:36:58;14.72;73.19
75130;HTU21D;63703;44.716;37.846;2022-11-25T06:39:24;14.74;73.11
75130;HTU21D;63703;44.716;37.846;2022-11-25T06:41:50;14.81;73.06
75130;HTU21D;63703;44.716;37.846;2022-11-25T06:44:16;14.98;72.44
75130;HTU21D;63703;44.716;37.846;2022-11-25T06:46:42;15.12;72.10
75130;HTU21D;63703;44.716;37.846;2022-11-25T06:49:08;15.25;71.94
75130;HTU21D;63703;44.716;37.846;2022-11-25T06:51:34;15.38;71.57
75130;HTU21D;63703;44.716;37.846;2022-11-25T06:54:00;15.46;71.29
75130;HTU21D;63703;44.716;37.846;2022-11-25T06:56:27;15.54;71.16
75130;HTU21D;63703;44.716;37.846;2022-11-25T06:58:53;15.66;70.79
75130;HTU21D;63703;44.716;37.846;2022-11-25T07:01:22;15.83;70.23
75130;HTU21D;63703;44.716;37.846;2022-11-25T07:03:52;15.98;69.76
75130;HTU21D;63703;44.716;37.846;2022-11-25T07:06:19;16.16;69.10
75130;HTU21D;63703;44.716;37.846;2022-11-25T07:08:46;16.30;68.62
75130;HTU21D;63703;44.716;37.846;2022-11-25T07:11:25;16.41;68.47
75130;HTU21D;63703;44.716;37.846;2022-11-25T07:13:53;16.54;68.29
75130;HTU21D;63703;44.716;37.846;2022-11-25T07:16:20;16.63;68.06
75130;HTU21D;63703;44.716;37.846;2022-11-25T07:18:46;16.78;67.69
75130;HTU21D;63703;44.716;37.846;2022-11-25T07:21:14;17.01;67.26
75130;HTU21D;63703;44.716;37.846;2022-11-25T07:23:42;17.25;66.73
75130;HTU21D;63703;44.716;37.846;2022-11-25T07:26:14;17.56;66.14
75130;HTU21D;63703;44.716;37.846;2022-11-25T07:28:40;17.91;65.59
75130;HTU21D;63703;44.716;37.846;2022-11-25T07:31:14;18.25;64.98
75130;HTU21D;63703;44.716;37.846;2022-11-25T07:33:42;18.57;64.49
75130;HTU21D;63703;44.716;37.846;2022-11-25T07:36:09;18.83;63.96
75130;HTU21D;63703;44.716;37.846;2022-11-25T07:38:37;19.10;63.52
75130;HTU21D;63703;44.716;37.846;2022-11-25T07:41:08;19.41;63.02
75130;HTU21D;63703;44.716;37.846;2022-11-25T07:43:34;19.48;62.90
75130;HTU21D;63703;44.716;37.846;2022-11-25T07:46:12;19.40;62.74
75130;HTU21D;63703;44.716;37.846;2022-11-25T07:48:39;19.27;63.08
75130;HTU21D;63703;44.716;37.846;2022-11-25T07:53:41;19.13;63.30
75130;HTU21D;63703;44.716;37.846;2022-11-25T07:56:07;18.97;63.21
75130;HTU21D;63703;44.716;37.846;2022-11-25T07:58:33;18.73;63.53
75130;HTU21D;63703;44.716;37.846;2022-11-25T08:01:03;18.64;63.56
75130;HTU21D;63703;44.716;37.846;2022-11-25T08:03:31;18.64;63.73
75130;HTU21D;63703;44.716;37.846;2022-11-25T08:06:06;18.59;63.56
75130;HTU21D;63703;44.716;37.846;2022-11-25T08:08:33;18.47;63.78
75130;HTU21D;63703;44.716;37.846;2022-11-25T08:11:00;18.41;63.76
75130;HTU21D;63703;44.716;37.846;2022-11-25T08:13:26;18.36;63.84
75130;HTU21D;63703;44.716;37.846;2022-11-25T08:15:52;18.37;63.85
75130;HTU21D;63703;44.716;37.846;2022-11-25T08:18:18;18.36;63.76
75130;HTU21D;63703;44.716;37.846;2022-11-25T08:20:44;18.34;63.82
75130;HTU21D;63703;44.716;37.846;2022-11-25T08:23:10;18.39;63.79
75130;HTU21D;63703;44.716;37.846;2022-11-25T08:25:42;18.55;63.51
75130;HTU21D;63703;44.716;37.846;2022-11-25T08:28:08;18.66;63.39
75130;HTU21D;63703;44.716;37.846;2022-11-25T08:30:35;18.80;63.16
75130;HTU21D;63703;44.716;37.846;2022-11-25T08:33:02;18.88;62.97
75130;HTU21D;63703;44.716;37.846;2022-11-25T08:35:30;19.00;62.88
75130;HTU21D;63703;44.716;37.846;2022-11-25T08:37:57;19.08;62.79
75130;HTU21D;63703;44.716;37.846;2022-11-25T08:40:23;19.20;62.55
75130;HTU21D;63703;44.716;37.846;2022-11-25T08:42:49;19.29;62.32
75130;HTU21D;63703;44.716;37.846;2022-11-25T08:45:14;19.39;62.21
75130;HTU21D;63703;44.716;37.846;2022-11-25T08:47:40;19.55;61.99
75130;HTU21D;63703;44.716;37.846;2022-11-25T08:50:09;19.70;61.80
75130;HTU21D;63703;44.716;37.846;2022-11-25T08:52:35;19.77;61.83
75130;HTU21D;63703;44.716;37.846;2022-11-25T08:55:01;19.89;61.80
75130;HTU21D;63703;44.716;37.846;2022-11-25T08:57:27;19.98;61.39
75130;HTU21D;63703;44.716;37.846;2022-11-25T08:59:52;20.03;60.87
75130;HTU21D;63703;44.716;37.846;2022-11-25T09:02:18;20.07;59.92
75130;HTU21D;63703;44.716;37.846;2022-11-25T09:04:44;20.12;59.41
75130;HTU21D;63703;44.716;37.846;2022-11-25T09:07:10;20.16;58.83
75130;HTU21D;63703;44.716;37.846;2022-11-25T09:09:36;20.06;58.70
75130;HTU21D;63703;44.716;37.846;2022-11-25T09:12:02;19.81;59.51
75130;HTU21D;63703;44.716;37.846;2022-11-25T09:14:28;19.72;59.83
75130;HTU21D;63703;44.716;37.846;2022-11-25T09:16:54;19.60;60.12
75130;HTU21D;63703;44.716;37.846;2022-11-25T09:19:21;19.56;60.51
75130;HTU21D;63703;44.716;37.846;2022-11-25T09:21:47;19.62;60.63
75130;HTU21D;63703;44.716;37.846;2022-11-25T09:24:13;19.76;60.57
75130;HTU21D;63703;44.716;37.846;2022-11-25T09:26:39;19.91;60.43
75130;HTU21D;63703;44.716;37.846;2022-11-25T09:29:06;20.03;60.12
75130;HTU21D;63703;44.716;37.846;2022-11-25T09:31:32;20.07;59.91
75130;HTU21D;63703;44.716;37.846;2022-11-25T09:33:59;20.04;59.81
75130;HTU21D;63703;44.716;37.846;2022-11-25T09:36:25;20.00;59.56
75130;HTU21D;63703;44.716;37.846;2022-11-25T09:38:51;19.91;59.38
75130;HTU21D;63703;44.716;37.846;2022-11-25T09:50:11;19.72;59.81
75130;HTU21D;63703;44.716;37.846;2022-11-25T09:55:25;20.00;59.60
75130;HTU21D;63703;44.716;37.846;2022-11-25T10:00:22;20.60;58.32
75130;HTU21D;63703;44.716;37.846;2022-11-25T10:05:47;21.20;57.39
75130;HTU21D;63703;44.716;37.846;2022-11-25T10:08:18;21.44;56.87
75130;HTU21D;63703;44.716;37.846;2022-11-25T10:10:47;21.79;56.08
75130;HTU21D;63703;44.716;37.846;2022-11-25T10:16:04;22.83;53.07
75130;HTU21D;63703;44.716;37.846;2022-11-25T10:18:38;23.64;51.22
75130;HTU21D;63703;44.716;37.846;2022-11-25T10:21:05;24.05;48.57
75130;HTU21D;63703;44.716;37.846;2022-11-25T10:23:34;24.21;47.52
75130;HTU21D;63703;44.716;37.846;2022-11-25T10:26:36;24.19;46.50
75130;HTU21D;63703;44.716;37.846;2022-11-25T10:31:40;24.42;45.34
75130;HTU21D;63703;44.716;37.846;2022-11-25T10:34:17;24.04;44.91
75130;HTU21D;63703;44.716;37.846;2022-11-25T10:36:45;23.37;46.35
75130;HTU21D;63703;44.716;37.846;2022-11-25T10:39:28;22.90;46.28
75130;HTU21D;63703;44.716;37.846;2022-11-25T10:42:06;22.54;46.67
75130;HTU21D;63703;44.716;37.846;2022-11-25T10:44:39;22.23;46.93
75130;HTU21D;63703;44.716;37.846;2022-11-25T10:53:26;22.20;47.17
75130;HTU21D;63703;44.716;37.846;2022-11-25T10:56:15;23.28;45.28
75130;HTU21D;63703;44.716;37.846;2022-11-25T10:58:41;24.94;42.01
75130;HTU21D;63703;44.716;37.846;2022-11-25T11:03:40;26.64;38.55
75130;HTU21D;63703;44.716;37.846;2022-11-25T11:06:08;27.11;37.11
75130;HTU21D;63703;44.716;37.846;2022-11-25T11:08:51;27.11;36.40
75130;HTU21D;63703;44.716;37.846;2022-11-25T11:11:20;27.07;36.41
75130;HTU21D;63703;44.716;37.846;2022-11-25T11:13:47;26.69;36.57
75130;HTU21D;63703;44.716;37.846;2022-11-25T11:16:35;27.29;36.18
75130;HTU21D;63703;44.716;37.846;2022-11-25T11:19:01;28.11;35.63
75130;HTU21D;63703;44.716;37.846;2022-11-25T11:21:30;28.67;34.93
75130;HTU21D;63703;44.716;37.846;2022-11-25T11:23:57;28.91;33.92
75130;HTU21D;63703;44.716;37.846;2022-11-25T11:26:33;29.19;33.02
75130;HTU21D;63703;44.716;37.846;2022-11-25T11:29:10;29.20;32.35
75130;HTU21D;63703;44.716;37.846;2022-11-25T11:31:42;29.30;31.95
75130;HTU21D;63703;44.716;37.846;2022-11-25T11:50:33;24.32;39.09
75130;HTU21D;63703;44.716;37.846;2022-11-25T11:59:17;25.66;39.31
75130;HTU21D;63703;44.716;37.846;2022-11-25T12:01:52;26.67;38.03
75130;HTU21D;63703;44.716;37.846;2022-11-25T12:04:30;27.08;36.95
75130;HTU21D;63703;44.716;37.846;2022-11-25T12:10:23;27.23;35.36
75130;HTU21D;63703;44.716;37.846;2022-11-25T12:13:11;27.17;35.12
75130;HTU21D;63703;44.716;37.846;2022-11-25T12:16:03;27.06;35.69
75130;HTU21D;63703;44.716;37.846;2022-11-25T12:26:59;26.07;42.03
75130;HTU21D;63703;44.716;37.846;2022-11-25T12:29:41;25.93;43.31
75130;HTU21D;63703;44.716;37.846;2022-11-25T12:40:19;25.25;45.42
75130;HTU21D;63703;44.716;37.846;2022-11-25T12:42:48;24.11;47.39
75130;HTU21D;63703;44.716;37.846;2022-11-25T12:45:21;23.16;49.51
75130;HTU21D;63703;44.716;37.846;2022-11-25T12:47:48;22.36;50.85
75130;HTU21D;63703;44.716;37.846;2022-11-25T12:53:18;21.46;53.35
75130;HTU21D;63703;44.716;37.846;2022-11-25T12:55:48;21.03;53.68
75130;HTU21D;63703;44.716;37.846;2022-11-25T13:06:57;19.72;55.81
75130;HTU21D;63703;44.716;37.846;2022-11-25T13:10:11;19.46;56.71
75130;HTU21D;63703;44.716;37.846;2022-11-25T13:15:25;19.02;57.24
75130;HTU21D;63703;44.716;37.846;2022-11-25T13:20:54;18.72;58.65
75130;HTU21D;63703;44.716;37.846;2022-11-25T13:23:25;18.66;59.18
75130;HTU21D;63703;44.716;37.846;2022-11-25T13:25:53;18.65;59.18
75130;HTU21D;63703;44.716;37.846;2022-11-25T13:28:38;18.58;59.34
75130;HTU21D;63703;44.716;37.846;2022-11-25T13:44:13;18.06;62.06
75130;HTU21D;63703;44.716;37.846;2022-11-25T13:46:50;17.76;62.28
75130;HTU21D;63703;44.716;37.846;2022-11-25T13:53:22;17.28;64.47
75130;HTU21D;63703;44.716;37.846;2022-11-25T14:09:08;16.28;70.88
75130;HTU21D;63703;44.716;37.846;2022-11-25T14:26:13;15.88;71.16
75130;HTU21D;63703;44.716;37.846;2022-11-25T14:29:19;15.84;71.43
75130;HTU21D;63703;44.716;37.846;2022-11-25T14:31:57;15.78;70.90
75130;HTU21D;63703;44.716;37.846;2022-11-25T14:34:42;15.77;71.50
75130;HTU21D;63703;44.716;37.846;2022-11-25T14:37:19;15.73;70.96
75130;HTU21D;63703;44.716;37.846;2022-11-25T14:40:10;15.70;71.67
75130;HTU21D;63703;44.716;37.846;2022-11-25T14:42:41;15.62;71.25
75130;HTU21D;63703;44.716;37.846;2022-11-25T14:45:22;15.60;71.77
75130;HTU21D;63703;44.716;37.846;2022-11-25T14:47:49;15.55;71.39
75130;HTU21D;63703;44.716;37.846;2022-11-25T14:50:15;15.52;71.64
75130;HTU21D;63703;44.716;37.846;2022-11-25T14:52:42;15.51;71.87
75130;HTU21D;63703;44.716;37.846;2022-11-25T14:55:09;15.46;72.00
75130;HTU21D;63703;44.716;37.846;2022-11-25T14:57:37;15.42;72.22
75130;HTU21D;63703;44.716;37.846;2022-11-25T15:00:13;15.39;72.65
75130;HTU21D;63703;44.716;37.846;2022-11-25T15:05:31;15.27;72.97
75130;HTU21D;63703;44.716;37.846;2022-11-25T15:08:08;15.22;73.35
75130;HTU21D;63703;44.716;37.846;2022-11-25T15:10:48;15.09;72.99
75130;HTU21D;63703;44.716;37.846;2022-11-25T15:13:23;15.00;72.87
75130;HTU21D;63703;44.716;37.846;2022-11-25T15:15:51;14.92;73.15
75130;HTU21D;63703;44.716;37.846;2022-11-25T15:18:21;14.86;73.62
75130;HTU21D;63703;44.716;37.846;2022-11-25T15:21:05;14.84;74.23
75130;HTU21D;63703;44.716;37.846;2022-11-25T15:23:35;14.79;73.83
75130;HTU21D;63703;44.716;37.846;2022-11-25T15:26:03;14.75;73.93
75130;HTU21D;63703;44.716;37.846;2022-11-25T15:28:34;14.73;74.31
75130;HTU21D;63703;44.716;37.846;2022-11-25T15:31:06;14.68;74.25
75130;HTU21D;63703;44.716;37.846;2022-11-25T15:33:32;14.64;74.36
75130;HTU21D;63703;44.716;37.846;2022-11-25T15:35:58;14.57;74.50
75130;HTU21D;63703;44.716;37.846;2022-11-25T15:41:01;14.48;74.64
75130;HTU21D;63703;44.716;37.846;2022-11-25T15:43:30;14.42;74.76
75130;HTU21D;63703;44.716;37.846;2022-11-25T15:46:01;14.36;74.94
75130;HTU21D;63703;44.716;37.846;2022-11-25T15:48:31;14.28;74.90
75130;HTU21D;63703;44.716;37.846;2022-11-25T15:51:03;14.23;75.25
75130;HTU21D;63703;44.716;37.846;2022-11-25T15:53:31;14.19;75.21
75130;HTU21D;63703;44.716;37.846;2022-11-25T15:56:03;14.13;75.38
75130;HTU21D;63703;44.716;37.846;2022-11-25T15:58:30;14.10;75.46
75130;HTU21D;63703;44.716;37.846;2022-11-25T16:03:40;14.00;75.71
75130;HTU21D;63703;44.716;37.846;2022-11-25T16:06:23;13.97;76.47
75130;HTU21D;63703;44.716;37.846;2022-11-25T16:08:53;13.94;76.16
75130;HTU21D;63703;44.716;37.846;2022-11-25T16:11:20;13.90;76.25
75130;HTU21D;63703;44.716;37.846;2022-11-25T16:13:49;13.86;76.46
75130;HTU21D;63703;44.716;37.846;2022-11-25T16:16:35;13.83;77.12
75130;HTU21D;63703;44.716;37.846;2022-11-25T16:19:25;13.80;77.20
75130;HTU21D;63703;44.716;37.846;2022-11-25T16:21:58;13.76;77.07
75130;HTU21D;63703;44.716;37.846;2022-11-25T16:27:17;13.70;77.53
75130;HTU21D;63703;44.716;37.846;2022-11-25T16:32:31;13.68;77.27
75130;HTU21D;63703;44.716;37.846;2022-11-25T16:35:15;13.74;78.05
75130;HTU21D;63703;44.716;37.846;2022-11-25T16:37:42;13.75;77.45
75130;HTU21D;63703;44.716;37.846;2022-11-25T16:40:12;13.81;77.73
75130;HTU21D;63703;44.716;37.846;2022-11-25T16:42:38;13.86;77.60
75130;HTU21D;63703;44.716;37.846;2022-11-25T16:45:22;13.93;78.13
75130;HTU21D;63703;44.716;37.846;2022-11-25T16:47:48;13.95;77.66
75130;HTU21D;63703;44.716;37.846;2022-11-25T16:50:15;13.95;77.19
75130;HTU21D;63703;44.716;37.846;2022-11-25T16:52:41;13.97;77.40
75130;HTU21D;63703;44.716;37.846;2022-11-25T16:55:11;14.00;77.55
75130;HTU21D;63703;44.716;37.846;2022-11-25T16:57:38;14.06;77.66
75130;HTU21D;63703;44.716;37.846;2022-11-25T17:00:09;14.08;77.75
75130;HTU21D;63703;44.716;37.846;2022-11-25T17:02:36;14.12;77.74
75130;HTU21D;63703;44.716;37.846;2022-11-25T17:05:20;14.17;78.34
75130;HTU21D;63703;44.716;37.846;2022-11-25T17:07:47;14.17;77.83
75130;HTU21D;63703;44.716;37.846;2022-11-25T17:10:15;14.15;77.91
75130;HTU21D;63703;44.716;37.846;2022-11-25T17:12:41;14.18;77.97
75130;HTU21D;63703;44.716;37.846;2022-11-25T17:15:17;14.19;78.33
75130;HTU21D;63703;44.716;37.846;2022-11-25T17:17:45;14.17;78.06
75130;HTU21D;63703;44.716;37.846;2022-11-25T17:20:21;14.19;78.37
75130;HTU21D;63703;44.716;37.846;2022-11-25T17:22:48;14.19;78.06
75130;HTU21D;63703;44.716;37.846;2022-11-25T17:25:14;14.20;78.10
75130;HTU21D;63703;44.716;37.846;2022-11-25T17:27:40;14.20;78.15
75130;HTU21D;63703;44.716;37.846;2022-11-25T17:30:22;14.24;78.38
75130;HTU21D;63703;44.716;37.846;2022-11-25T17:32:55;14.23;78.30
75130;HTU21D;63703;44.716;37.846;2022-11-25T17:35:22;14.23;78.16
75130;HTU21D;63703;44.716;37.846;2022-11-25T17:37:48;14.24;78.22
75130;HTU21D;63703;44.716;37.846;2022-11-25T17:40:14;14.24;78.27
75130;HTU21D;63703;44.716;37.846;2022-11-25T17:42:41;14.24;78.29
75130;HTU21D;63703;44.716;37.846;2022-11-25T17:45:16;14.25;78.43
75130;HTU21D;63703;44.716;37.846;2022-11-25T17:47:43;14.21;78.19
75130;HTU21D;63703;44.716;37.846;2022-11-25T17:50:22;14.21;78.53
75130;HTU21D;63703;44.716;37.846;2022-11-25T17:52:49;14.18;78.24
75130;HTU21D;63703;44.716;37.846;2022-11-25T17:55:15;14.18;78.28
75130;HTU21D;63703;44.716;37.846;2022-11-25T17:57:53;14.17;78.62
75130;HTU21D;63703;44.716;37.846;2022-11-25T18:00:20;14.12;78.40
75130;HTU21D;63703;44.716;37.846;2022-11-25T18:02:47;14.10;78.47
75130;HTU21D;63703;44.716;37.846;2022-11-25T18:05:31;14.10;78.83
75130;HTU21D;63703;44.716;37.846;2022-11-25T18:07:59;14.07;78.44
75130;HTU21D;63703;44.716;37.846;2022-11-25T18:10:26;14.05;78.45
75130;HTU21D;63703;44.716;37.846;2022-11-25T18:13:01;14.05;78.43
75130;HTU21D;63703;44.716;37.846;2022-11-25T18:15:29;14.04;78.45
75130;HTU21D;63703;44.716;37.846;2022-11-25T18:18:23;14.04;78.78
75130;HTU21D;63703;44.716;37.846;2022-11-25T18:20:50;13.98;78.44
75130;HTU21D;63703;44.716;37.846;2022-11-25T18:23:16;13.93;78.54
75130;HTU21D;63703;44.716;37.846;2022-11-25T18:25:43;13.91;78.64
75130;HTU21D;63703;44.716;37.846;2022-11-25T18:28:18;13.85;78.88
75130;HTU21D;63703;44.716;37.846;2022-11-25T18:30:45;13.78;78.80
75130;HTU21D;63703;44.716;37.846;2022-11-25T18:33:14;13.73;78.95
75130;HTU21D;63703;44.716;37.846;2022-11-25T18:35:41;13.67;79.07
75130;HTU21D;63703;44.716;37.846;2022-11-25T18:38:09;13.61;79.21
75130;HTU21D;63703;44.716;37.846;2022-11-25T18:40:37;13.58;79.35
75130;HTU21D;63703;44.716;37.846;2022-11-25T18:43:06;13.52;79.44
75130;HTU21D;63703;44.716;37.846;2022-11-25T18:45:37;13.49;79.54
75130;HTU21D;63703;44.716;37.846;2022-11-25T18:48:18;13.48;80.00
75130;HTU21D;63703;44.716;37.846;2022-11-25T18:50:46;13.41;79.68
75130;HTU21D;63703;44.716;37.846;2022-11-25T18:53:12;13.38;79.80
75130;HTU21D;63703;44.716;37.846;2022-11-25T18:55:39;13.34;79.93
75130;HTU21D;63703;44.716;37.846;2022-11-25T18:58:20;13.32;80.43
75130;HTU21D;63703;44.716;37.846;2022-11-25T19:00:48;13.27;80.11
75130;HTU21D;63703;44.716;37.846;2022-11-25T19:03:21;13.26;80.28
75130;HTU21D;63703;44.716;37.846;2022-11-25T19:05:48;13.23;80.33
75130;HTU21D;63703;44.716;37.846;2022-11-25T19:08:14;13.20;80.39
75130;HTU21D;63703;44.716;37.846;2022-11-25T19:10:42;13.19;80.48
75130;HTU21D;63703;44.716;37.846;2022-11-25T19:13:24;13.16;80.79
75130;HTU21D;63703;44.716;37.846;2022-11-25T19:15:50;13.11;80.52
75130;HTU21D;63703;44.716;37.846;2022-11-25T19:18:22;13.10;80.78
75130;HTU21D;63703;44.716;37.846;2022-11-25T19:20:49;13.09;80.67
75130;HTU21D;63703;44.716;37.846;2022-11-25T19:23:21;13.09;80.94
75130;HTU21D;63703;44.716;37.846;2022-11-25T19:25:52;13.06;80.88
75130;HTU21D;63703;44.716;37.846;2022-11-25T19:28:19;13.06;80.91
75130;HTU21D;63703;44.716;37.846;2022-11-25T19:30:45;13.05;80.99
75130;HTU21D;63703;44.716;37.846;2022-11-25T19:33:25;13.05;81.39
75130;HTU21D;63703;44.716;37.846;2022-11-25T19:35:52;13.04;81.08
75130;HTU21D;63703;44.716;37.846;2022-11-25T19:38:20;13.04;81.39
75130;HTU21D;63703;44.716;37.846;2022-11-25T19:40:47;13.03;81.49
75130;HTU21D;63703;44.716;37.846;2022-11-25T19:43:13;13.02;81.49
75130;HTU21D;63703;44.716;37.846;2022-11-25T19:45:39;13.02;81.51
75130;HTU21D;63703;44.716;37.846;2022-11-25T19:48:14;13.00;81.69
75130;HTU21D;63703;44.716;37.846;2022-11-25T19:50:42;12.95;81.59
75130;HTU21D;63703;44.716;37.846;2022-11-25T19:53:16;12.94;81.80
75130;HTU21D;63703;44.716;37.846;2022-11-25T19:55:42;12.92;81.65
75130;HTU21D;63703;44.716;37.846;2022-11-25T19:58:09;12.89;81.69
75130;HTU21D;63703;44.716;37.846;2022-11-25T20:00:35;12.85;81.70
75130;HTU21D;63703;44.716;37.846;2022-11-25T20:03:02;12.81;81.73
75130;HTU21D;63703;44.716;37.846;2022-11-25T20:05:31;12.79;81.84
75130;HTU21D;63703;44.716;37.846;2022-11-25T20:07:58;12.77;81.86
75130;HTU21D;63703;44.716;37.846;2022-11-25T20:10:26;12.74;81.97
75130;HTU21D;63703;44.716;37.846;2022-11-25T20:12:54;12.74;82.03
75130;HTU21D;63703;44.716;37.846;2022-11-25T20:15:20;12.72;82.05
75130;HTU21D;63703;44.716;37.846;2022-11-25T20:17:49;12.71;82.12
75130;HTU21D;63703;44.716;37.846;2022-11-25T20:20:19;12.70;82.16
75130;HTU21D;63703;44.716;37.846;2022-11-25T20:25:21;12.64;82.22
75130;HTU21D;63703;44.716;37.846;2022-11-25T20:27:47;12.62;82.27
75130;HTU21D;63703;44.716;37.846;2022-11-25T20:30:19;12.62;82.36
75130;HTU21D;63703;44.716;37.846;2022-11-25T20:32:45;12.62;82.42
75130;HTU21D;63703;44.716;37.846;2022-11-25T20:35:11;12.63;82.52
75130;HTU21D;63703;44.716;37.846;2022-11-25T20:37:38;12.64;82.64
75130;HTU21D;63703;44.716;37.846;2022-11-25T20:40:16;12.65;82.73
75130;HTU21D;63703;44.716;37.846;2022-11-25T20:42:43;12.65;82.80
75130;HTU21D;63703;44.716;37.846;2022-11-25T20:45:17;12.65;83.03
75130;HTU21D;63703;44.716;37.846;2022-11-25T20:47:44;12.64;82.93
75130;HTU21D;63703;44.716;37.846;2022-11-25T20:50:13;12.62;83.08
75130;HTU21D;63703;44.716;37.846;2022-11-25T20:52:40;12.60;83.07
75130;HTU21D;63703;44.716;37.846;2022-11-25T20:55:18;12.60;83.31
75130;HTU21D;63703;44.716;37.846;2022-11-25T20:57:45;12.55;83.04
75130;HTU21D;63703;44.716;37.846;2022-11-25T21:00:31;12.50;83.31
75130;HTU21D;63703;44.716;37.846;2022-11-25T21:02:57;12.43;82.99
75130;HTU21D;63703;44.716;37.846;2022-11-25T21:05:25;12.37;83.01
75130;HTU21D;63703;44.716;37.846;2022-11-25T21:07:51;12.34;83.02
75130;HTU21D;63703;44.716;37.846;2022-11-25T21:10:20;12.36;83.13
75130;HTU21D;63703;44.716;37.846;2022-11-25T21:12:47;12.37;83.26
75130;HTU21D;63703;44.716;37.846;2022-11-25T21:15:16;12.37;83.40
75130;HTU21D;63703;44.716;37.846;2022-11-25T21:17:42;12.34;83.41
75130;HTU21D;63703;44.716;37.846;2022-11-25T21:20:09;12.33;83.41
75130;HTU21D;63703;44.716;37.846;2022-11-25T21:22:36;12.29;83.40
75130;HTU21D;63703;44.716;37.846;2022-11-25T21:25:02;12.26;83.38
75130;HTU21D;63703;44.716;37.846;2022-11-25T21:27:29;12.21;83.36
75130;HTU21D;63703;44.716;37.846;2022-11-25T21:29:54;12.17;83.35
75130;HTU21D;63703;44.716;37.846;2022-11-25T21:32:23;12.16;83.35
75130;HTU21D;63703;44.716;37.846;2022-11-25T21:34:50;12.12;83.32
75130;HTU21D;63703;44.716;37.846;2022-11-25T21:37:20;12.10;83.37
75130;HTU21D;63703;44.716;37.846;2022-11-25T21:39:47;12.08;83.34
75130;HTU21D;63703;44.716;37.846;2022-11-25T21:42:17;12.11;83.49
75130;HTU21D;63703;44.716;37.846;2022-11-25T21:44:44;12.12;83.39
75130;HTU21D;63703;44.716;37.846;2022-11-25T21:49:38;12.15;83.42
75130;HTU21D;63703;44.716;37.846;2022-11-25T21:52:04;12.18;83.47
75130;HTU21D;63703;44.716;37.846;2022-11-25T21:54:30;12.20;83.49
75130;HTU21D;63703;44.716;37.846;2022-11-25T21:56:56;12.21;83.49
75130;HTU21D;63703;44.716;37.846;2022-11-25T21:59:23;12.22;83.50
75130;HTU21D;63703;44.716;37.846;2022-11-25T22:01:50;12.26;83.51
75130;HTU21D;63703;44.716;37.846;2022-11-25T22:04:18;12.29;83.56
75130;HTU21D;63703;44.716;37.846;2022-11-25T22:06:46;12.31;83.57
75130;HTU21D;63703;44.716;37.846;2022-11-25T22:09:12;12.34;83.61
75130;HTU21D;63703;44.716;37.846;2022-11-25T22:11:45;12.37;83.85
75130;HTU21D;63703;44.716;37.846;2022-11-25T22:14:32;12.41;84.10
75130;HTU21D;63703;44.716;37.846;2022-11-25T22:17:06;12.38;83.71
75130;HTU21D;63703;44.716;37.846;2022-11-25T22:19:34;12.40;83.70
75130;HTU21D;63703;44.716;37.846;2022-11-25T22:22:00;12.42;83.73
75130;HTU21D;63703;44.716;37.846;2022-11-25T22:24:28;12.42;83.75
75130;HTU21D;63703;44.716;37.846;2022-11-25T22:26:54;12.42;83.71
75130;HTU21D;63703;44.716;37.846;2022-11-25T22:29:21;12.42;83.71
75130;HTU21D;63703;44.716;37.846;2022-11-25T22:31:49;12.43;83.69
75130;HTU21D;63703;44.716;37.846;2022-11-25T22:34:20;12.44;83.84
75130;HTU21D;63703;44.716;37.846;2022-11-25T22:36:47;12.45;83.71
75130;HTU21D;63703;44.716;37.846;2022-11-25T22:39:24;12.48;83.84
75130;HTU21D;63703;44.716;37.846;2022-11-25T22:41:51;12.47;83.71
75130;HTU21D;63703;44.716;37.846;2022-11-25T22:44:36;12.47;83.88
75130;HTU21D;63703;44.716;37.846;2022-11-25T22:47:03;12.45;83.72
75130;HTU21D;63703;44.716;37.846;2022-11-25T22:51:58;12.43;83.74
75130;HTU21D;63703;44.716;37.846;2022-11-25T22:54:24;12.43;83.77
75130;HTU21D;63703;44.716;37.846;2022-11-25T22:56:50;12.46;83.78
75130;HTU21D;63703;44.716;37.846;2022-11-25T22:59:17;12.53;83.64
75130;HTU21D;63703;44.716;37.846;2022-11-25T23:01:43;12.59;83.36
75130;HTU21D;63703;44.716;37.846;2022-11-25T23:04:15;12.66;83.04
75130;HTU21D;63703;44.716;37.846;2022-11-25T23:06:41;12.72;82.77
75130;HTU21D;63703;44.716;37.846;2022-11-25T23:09:17;12.78;82.45
75130;HTU21D;63703;44.716;37.846;2022-11-25T23:11:44;12.80;82.31
75130;HTU21D;63703;44.716;37.846;2022-11-25T23:14:10;12.84;82.13
75130;HTU21D;63703;44.716;37.846;2022-11-25T23:16:38;12.86;81.97
75130;HTU21D;63703;44.716;37.846;2022-11-25T23:19:05;12.93;81.74
75130;HTU21D;63703;44.716;37.846;2022-11-25T23:21:35;12.94;81.55
75130;HTU21D;63703;44.716;37.846;2022-11-25T23:24:01;12.95;81.43
75130;HTU21D;63703;44.716;37.846;2022-11-25T23:26:27;12.95;81.33
75130;HTU21D;63703;44.716;37.846;2022-11-25T23:28:53;12.95;81.24
75130;HTU21D;63703;44.716;37.846;2022-11-25T23:31:19;12.97;81.08
75130;HTU21D;63703;44.716;37.846;2022-11-25T23:33:48;12.97;81.00
75130;HTU21D;63703;44.716;37.846;2022-11-25T23:38:45;12.96;80.88
75130;HTU21D;63703;44.716;37.846;2022-11-25T23:41:31;12.99;80.88
75130;HTU21D;63703;44.716;37.846;2022-11-25T23:44:08;12.94;80.85
75130;HTU21D;63703;44.716;37.846;2022-11-25T23:46:35;12.93;80.84
75130;HTU21D;63703;44.716;37.846;2022-11-25T23:49:02;12.93;80.86
75130;HTU21D;63703;44.716;37.846;2022-11-25T23:51:29;12.92;80.88
75130;HTU21D;63703;44.716;37.846;2022-11-25T23:53:56;12.93;80.89